sensor_id;sensor_type;location;lat;lon;timestamp;P1;durP1;ratioP1;P2;durP2;ratioP2
45043;SDS011;30784;48.490;9.688;2023-07-02T00:01:42;2.97;;;1.00;;
45043;SDS011;30784;48.490;9.688;2023-07-02T00:04:08;3.05;;;0.98;;
45043;SDS011;30784;48.490;9.688;2023-07-02T00:06:34;3.03;;;1.10;;
45043;SDS011;30784;48.490;9.688;2023-07-02T00:09:09;3.85;;;1.10;;
45043;SDS011;30784;48.490;9.688;2023-07-02T00:11:38;2.85;;;1.10;;
45043;SDS011;30784;48.490;9.688;2023-07-02T00:14:05;3.30;;;1.20;;
45043;SDS011;30784;48.490;9.688;2023-07-02T00:16:31;4.88;;;1.60;;
45043;SDS011;30784;48.490;9.688;2023-07-02T00:18:58;4.60;;;1.60;;
45043;SDS011;30784;48.490;9.688;2023-07-02T00:21:24;5.05;;;1.92;;
45043;SDS011;30784;48.490;9.688;2023-07-02T00:23:53;5.22;;;1.92;;
45043;SDS011;30784;48.490;9.688;2023-07-02T00:26:22;4.95;;;1.85;;
45043;SDS011;30784;48.490;9.688;2023-07-02T00:28:51;4.65;;;1.73;;
45043;SDS011;30784;48.490;9.688;2023-07-02T00:31:18;4.82;;;1.83;;
45043;SDS011;30784;48.490;9.688;2023-07-02T00:33:43;6.13;;;2.00;;
45043;SDS011;30784;48.490;9.688;2023-07-02T00:36:09;5.65;;;2.05;;
45043;SDS011;30784;48.490;9.688;2023-07-02T00:38:39;5.20;;;2.00;;
45043;SDS011;30784;48.490;9.688;2023-07-02T00:41:09;5.20;;;1.92;;
45043;SDS011;30784;48.490;9.688;2023-07-02T00:43:35;4.68;;;1.83;;
45043;SDS011;30784;48.490;9.688;2023-07-02T00:46:01;5.50;;;2.13;;
45043;SDS011;30784;48.490;9.688;2023-07-02T00:48:28;5.18;;;1.80;;
45043;SDS011;30784;48.490;9.688;2023-07-02T00:50:55;5.32;;;1.65;;
45043;SDS011;30784;48.490;9.688;2023-07-02T00:53:21;5.28;;;1.90;;
45043;SDS011;30784;48.490;9.688;2023-07-02T00:55:46;7.03;;;2.80;;
45043;SDS011;30784;48.490;9.688;2023-07-02T00:58:12;5.72;;;2.30;;
45043;SDS011;30784;48.490;9.688;2023-07-02T01:00:41;5.18;;;1.90;;
45043;SDS011;30784;48.490;9.688;2023-07-02T01:03:07;4.40;;;1.80;;
45043;SDS011;30784;48.490;9.688;2023-07-02T01:05:32;6.20;;;1.80;;
45043;SDS011;30784;48.490;9.688;2023-07-02T01:08:02;5.18;;;1.80;;
45043;SDS011;30784;48.490;9.688;2023-07-02T01:10:31;5.10;;;2.03;;
45043;SDS011;30784;48.490;9.688;2023-07-02T01:12:59;5.53;;;2.08;;
45043;SDS011;30784;48.490;9.688;2023-07-02T01:15:31;5.80;;;2.15;;
45043;SDS011;30784;48.490;9.688;2023-07-02T01:17:57;4.72;;;1.85;;
45043;SDS011;30784;48.490;9.688;2023-07-02T01:20:23;4.28;;;1.67;;
45043;SDS011;30784;48.490;9.688;2023-07-02T01:22:51;6.38;;;1.95;;
45043;SDS011;30784;48.490;9.688;2023-07-02T01:25:17;4.53;;;1.73;;
45043;SDS011;30784;48.490;9.688;2023-07-02T01:27:43;5.05;;;1.75;;
45043;SDS011;30784;48.490;9.688;2023-07-02T01:30:09;5.20;;;1.88;;
45043;SDS011;30784;48.490;9.688;2023-07-02T01:32:36;4.75;;;1.90;;
45043;SDS011;30784;48.490;9.688;2023-07-02T01:35:03;5.13;;;1.77;;
45043;SDS011;30784;48.490;9.688;2023-07-02T01:37:28;5.20;;;1.67;;
45043;SDS011;30784;48.490;9.688;2023-07-02T01:40:02;5.65;;;1.90;;
45043;SDS011;30784;48.490;9.688;2023-07-02T01:42:31;6.10;;;2.20;;
45043;SDS011;30784;48.490;9.688;2023-07-02T01:44:57;5.05;;;1.90;;
45043;SDS011;30784;48.490;9.688;2023-07-02T01:47:23;4.95;;;1.92;;
45043;SDS011;30784;48.490;9.688;2023-07-02T01:49:49;5.68;;;2.00;;
45043;SDS011;30784;48.490;9.688;2023-07-02T01:52:15;5.18;;;1.88;;
45043;SDS011;30784;48.490;9.688;2023-07-02T01:58:03;4.90;;;1.90;;
45043;SDS011;30784;48.490;9.688;2023-07-02T02:00:29;5.57;;;1.80;;
45043;SDS011;30784;48.490;9.688;2023-07-02T02:02:54;5.28;;;1.95;;
45043;SDS011;30784;48.490;9.688;2023-07-02T02:05:20;5.32;;;1.70;;
45043;SDS011;30784;48.490;9.688;2023-07-02T02:07:46;4.65;;;1.77;;
45043;SDS011;30784;48.490;9.688;2023-07-02T02:10:11;4.88;;;1.70;;
45043;SDS011;30784;48.490;9.688;2023-07-02T02:12:38;4.43;;;1.60;;
45043;SDS011;30784;48.490;9.688;2023-07-02T02:18:25;5.13;;;1.63;;
45043;SDS011;30784;48.490;9.688;2023-07-02T02:20:50;5.22;;;1.80;;
45043;SDS011;30784;48.490;9.688;2023-07-02T02:23:16;4.57;;;1.70;;
45043;SDS011;30784;48.490;9.688;2023-07-02T02:25:41;4.38;;;1.67;;
45043;SDS011;30784;48.490;9.688;2023-07-02T02:28:07;4.45;;;1.60;;
45043;SDS011;30784;48.490;9.688;2023-07-02T02:30:32;4.88;;;1.70;;
45043;SDS011;30784;48.490;9.688;2023-07-02T02:32:58;4.70;;;1.63;;
45043;SDS011;30784;48.490;9.688;2023-07-02T02:35:23;4.78;;;1.75;;
45043;SDS011;30784;48.490;9.688;2023-07-02T02:37:49;5.13;;;1.88;;
45043;SDS011;30784;48.490;9.688;2023-07-02T02:40:15;5.72;;;1.85;;
45043;SDS011;30784;48.490;9.688;2023-07-02T02:42:41;6.10;;;1.80;;
45043;SDS011;30784;48.490;9.688;2023-07-02T02:45:07;5.65;;;2.03;;
45043;SDS011;30784;48.490;9.688;2023-07-02T02:47:32;6.32;;;2.30;;
45043;SDS011;30784;48.490;9.688;2023-07-02T02:49:58;7.82;;;2.95;;
45043;SDS011;30784;48.490;9.688;2023-07-02T02:52:24;7.07;;;3.03;;
45043;SDS011;30784;48.490;9.688;2023-07-02T02:54:50;6.53;;;2.10;;
45043;SDS011;30784;48.490;9.688;2023-07-02T02:57:18;6.38;;;2.30;;
45043;SDS011;30784;48.490;9.688;2023-07-02T02:59:43;5.57;;;2.10;;
45043;SDS011;30784;48.490;9.688;2023-07-02T03:02:09;5.85;;;1.90;;
45043;SDS011;30784;48.490;9.688;2023-07-02T03:04:34;5.43;;;1.90;;
45043;SDS011;30784;48.490;9.688;2023-07-02T03:07:04;5.38;;;1.75;;
45043;SDS011;30784;48.490;9.688;2023-07-02T03:09:31;4.45;;;1.60;;
45043;SDS011;30784;48.490;9.688;2023-07-02T03:11:57;4.72;;;1.67;;
45043;SDS011;30784;48.490;9.688;2023-07-02T03:14:22;4.63;;;1.70;;
45043;SDS011;30784;48.490;9.688;2023-07-02T03:16:48;5.43;;;1.83;;
45043;SDS011;30784;48.490;9.688;2023-07-02T03:19:13;4.20;;;1.60;;
45043;SDS011;30784;48.490;9.688;2023-07-02T03:21:41;5.43;;;2.00;;
45043;SDS011;30784;48.490;9.688;2023-07-02T03:24:08;4.93;;;1.88;;
45043;SDS011;30784;48.490;9.688;2023-07-02T03:26:36;5.38;;;1.90;;
45043;SDS011;30784;48.490;9.688;2023-07-02T03:29:02;5.43;;;1.73;;
45043;SDS011;30784;48.490;9.688;2023-07-02T03:31:27;5.53;;;2.00;;
45043;SDS011;30784;48.490;9.688;2023-07-02T03:33:53;5.15;;;1.77;;
45043;SDS011;30784;48.490;9.688;2023-07-02T03:36:18;4.93;;;1.85;;
45043;SDS011;30784;48.490;9.688;2023-07-02T03:38:44;4.78;;;1.95;;
45043;SDS011;30784;48.490;9.688;2023-07-02T03:41:10;5.45;;;1.90;;
45043;SDS011;30784;48.490;9.688;2023-07-02T03:43:35;6.97;;;2.10;;
45043;SDS011;30784;48.490;9.688;2023-07-02T03:46:01;5.25;;;1.67;;
45043;SDS011;30784;48.490;9.688;2023-07-02T03:48:26;4.57;;;1.80;;
45043;SDS011;30784;48.490;9.688;2023-07-02T03:50:52;5.40;;;1.90;;
45043;SDS011;30784;48.490;9.688;2023-07-02T03:53:17;6.07;;;1.83;;
45043;SDS011;30784;48.490;9.688;2023-07-02T03:55:43;5.63;;;1.85;;
45043;SDS011;30784;48.490;9.688;2023-07-02T03:58:08;7.28;;;2.13;;
45043;SDS011;30784;48.490;9.688;2023-07-02T04:00:34;5.65;;;2.05;;
45043;SDS011;30784;48.490;9.688;2023-07-02T04:02:59;6.63;;;2.10;;
45043;SDS011;30784;48.490;9.688;2023-07-02T04:05:25;6.50;;;2.20;;
45043;SDS011;30784;48.490;9.688;2023-07-02T04:07:50;6.85;;;2.20;;
45043;SDS011;30784;48.490;9.688;2023-07-02T04:10:16;6.13;;;2.22;;
45043;SDS011;30784;48.490;9.688;2023-07-02T04:12:42;6.18;;;2.25;;
45043;SDS011;30784;48.490;9.688;2023-07-02T04:15:07;6.13;;;2.05;;
45043;SDS011;30784;48.490;9.688;2023-07-02T04:17:33;5.60;;;2.00;;
45043;SDS011;30784;48.490;9.688;2023-07-02T04:19:59;6.32;;;2.47;;
45043;SDS011;30784;48.490;9.688;2023-07-02T04:22:26;6.75;;;2.30;;
45043;SDS011;30784;48.490;9.688;2023-07-02T04:24:52;7.53;;;2.38;;
45043;SDS011;30784;48.490;9.688;2023-07-02T04:27:17;5.45;;;2.20;;
45043;SDS011;30784;48.490;9.688;2023-07-02T04:29:44;7.00;;;2.53;;
45043;SDS011;30784;48.490;9.688;2023-07-02T04:32:09;6.55;;;2.08;;
45043;SDS011;30784;48.490;9.688;2023-07-02T04:34:35;6.38;;;2.13;;
45043;SDS011;30784;48.490;9.688;2023-07-02T04:37:01;6.32;;;2.13;;
45043;SDS011;30784;48.490;9.688;2023-07-02T04:39:28;5.72;;;2.00;;
45043;SDS011;30784;48.490;9.688;2023-07-02T04:41:54;6.15;;;1.90;;
45043;SDS011;30784;48.490;9.688;2023-07-02T04:44:19;5.68;;;2.20;;
45043;SDS011;30784;48.490;9.688;2023-07-02T04:46:54;6.13;;;2.00;;
45043;SDS011;30784;48.490;9.688;2023-07-02T04:49:23;5.95;;;2.10;;
45043;SDS011;30784;48.490;9.688;2023-07-02T04:51:49;6.90;;;2.17;;
45043;SDS011;30784;48.490;9.688;2023-07-02T04:54:15;6.20;;;2.15;;
45043;SDS011;30784;48.490;9.688;2023-07-02T04:56:41;5.63;;;1.98;;
45043;SDS011;30784;48.490;9.688;2023-07-02T04:59:07;4.45;;;1.65;;
45043;SDS011;30784;48.490;9.688;2023-07-02T05:01:32;5.70;;;1.80;;
45043;SDS011;30784;48.490;9.688;2023-07-02T05:03:58;5.85;;;2.00;;
45043;SDS011;30784;48.490;9.688;2023-07-02T05:06:23;5.45;;;1.67;;
45043;SDS011;30784;48.490;9.688;2023-07-02T05:08:49;4.90;;;1.58;;
45043;SDS011;30784;48.490;9.688;2023-07-02T05:11:14;4.18;;;1.40;;
45043;SDS011;30784;48.490;9.688;2023-07-02T05:13:40;5.05;;;1.50;;
45043;SDS011;30784;48.490;9.688;2023-07-02T05:16:05;5.60;;;1.73;;
45043;SDS011;30784;48.490;9.688;2023-07-02T05:18:31;3.75;;;1.10;;
45043;SDS011;30784;48.490;9.688;2023-07-02T05:20:56;3.45;;;0.98;;
45043;SDS011;30784;48.490;9.688;2023-07-02T05:23:22;2.08;;;0.75;;
45043;SDS011;30784;48.490;9.688;2023-07-02T05:25:48;1.25;;;0.45;;
45043;SDS011;30784;48.490;9.688;2023-07-02T05:28:13;1.80;;;0.60;;
45043;SDS011;30784;48.490;9.688;2023-07-02T05:30:39;1.35;;;0.40;;
45043;SDS011;30784;48.490;9.688;2023-07-02T05:33:04;1.30;;;0.40;;
45043;SDS011;30784;48.490;9.688;2023-07-02T05:35:30;0.77;;;0.35;;
45043;SDS011;30784;48.490;9.688;2023-07-02T05:37:55;1.25;;;0.40;;
45043;SDS011;30784;48.490;9.688;2023-07-02T05:40:21;0.55;;;0.20;;
45043;SDS011;30784;48.490;9.688;2023-07-02T05:42:46;0.55;;;0.20;;
45043;SDS011;30784;48.490;9.688;2023-07-02T05:45:12;1.23;;;0.50;;
45043;SDS011;30784;48.490;9.688;2023-07-02T05:47:37;2.47;;;0.70;;
45043;SDS011;30784;48.490;9.688;2023-07-02T05:50:03;2.92;;;0.82;;
45043;SDS011;30784;48.490;9.688;2023-07-02T05:52:30;3.00;;;1.00;;
45043;SDS011;30784;48.490;9.688;2023-07-02T05:54:55;4.20;;;1.33;;
45043;SDS011;30784;48.490;9.688;2023-07-02T05:57:21;4.80;;;1.50;;
45043;SDS011;30784;48.490;9.688;2023-07-02T05:59:46;7.35;;;2.05;;
45043;SDS011;30784;48.490;9.688;2023-07-02T06:02:12;5.80;;;2.17;;
45043;SDS011;30784;48.490;9.688;2023-07-02T06:04:37;8.65;;;2.47;;
45043;SDS011;30784;48.490;9.688;2023-07-02T06:07:03;6.65;;;2.17;;
45043;SDS011;30784;48.490;9.688;2023-07-02T06:09:28;6.20;;;2.17;;
45043;SDS011;30784;48.490;9.688;2023-07-02T06:11:54;7.38;;;2.47;;
45043;SDS011;30784;48.490;9.688;2023-07-02T06:14:19;6.07;;;2.13;;
45043;SDS011;30784;48.490;9.688;2023-07-02T06:16:46;7.40;;;2.40;;
45043;SDS011;30784;48.490;9.688;2023-07-02T06:19:12;6.38;;;2.25;;
45043;SDS011;30784;48.490;9.688;2023-07-02T06:21:37;6.93;;;2.40;;
45043;SDS011;30784;48.490;9.688;2023-07-02T06:24:03;7.38;;;2.70;;
45043;SDS011;30784;48.490;9.688;2023-07-02T06:26:29;7.32;;;2.30;;
45043;SDS011;30784;48.490;9.688;2023-07-02T06:28:56;7.28;;;2.47;;
45043;SDS011;30784;48.490;9.688;2023-07-02T06:31:22;7.72;;;2.67;;
45043;SDS011;30784;48.490;9.688;2023-07-02T06:33:47;7.75;;;2.53;;
45043;SDS011;30784;48.490;9.688;2023-07-02T06:36:13;7.75;;;2.55;;
45043;SDS011;30784;48.490;9.688;2023-07-02T06:38:39;7.55;;;2.90;;
45043;SDS011;30784;48.490;9.688;2023-07-02T06:41:05;7.15;;;2.70;;
45043;SDS011;30784;48.490;9.688;2023-07-02T06:43:31;8.23;;;3.17;;
45043;SDS011;30784;48.490;9.688;2023-07-02T06:45:56;9.20;;;3.38;;
45043;SDS011;30784;48.490;9.688;2023-07-02T06:48:22;7.72;;;3.00;;
45043;SDS011;30784;48.490;9.688;2023-07-02T06:50:47;7.63;;;3.00;;
45043;SDS011;30784;48.490;9.688;2023-07-02T06:53:13;8.68;;;2.90;;
45043;SDS011;30784;48.490;9.688;2023-07-02T06:55:39;8.40;;;3.50;;
45043;SDS011;30784;48.490;9.688;2023-07-02T06:58:05;8.85;;;3.20;;
45043;SDS011;30784;48.490;9.688;2023-07-02T07:00:31;9.43;;;3.20;;
45043;SDS011;30784;48.490;9.688;2023-07-02T07:03:01;8.82;;;3.35;;
45043;SDS011;30784;48.490;9.688;2023-07-02T07:05:29;8.30;;;3.30;;
45043;SDS011;30784;48.490;9.688;2023-07-02T07:07:55;9.23;;;3.53;;
45043;SDS011;30784;48.490;9.688;2023-07-02T07:10:20;7.80;;;2.75;;
45043;SDS011;30784;48.490;9.688;2023-07-02T07:12:46;8.90;;;3.60;;
45043;SDS011;30784;48.490;9.688;2023-07-02T07:15:11;7.63;;;3.13;;
45043;SDS011;30784;48.490;9.688;2023-07-02T07:17:37;8.20;;;3.17;;
45043;SDS011;30784;48.490;9.688;2023-07-02T07:20:02;8.55;;;3.50;;
45043;SDS011;30784;48.490;9.688;2023-07-02T07:22:30;8.85;;;3.85;;
45043;SDS011;30784;48.490;9.688;2023-07-02T07:24:55;9.55;;;3.63;;
45043;SDS011;30784;48.490;9.688;2023-07-02T07:27:21;10.15;;;4.05;;
45043;SDS011;30784;48.490;9.688;2023-07-02T07:29:46;8.68;;;3.70;;
45043;SDS011;30784;48.490;9.688;2023-07-02T07:32:12;10.48;;;3.72;;
45043;SDS011;30784;48.490;9.688;2023-07-02T07:34:38;8.20;;;3.47;;
45043;SDS011;30784;48.490;9.688;2023-07-02T07:37:03;9.88;;;3.72;;
45043;SDS011;30784;48.490;9.688;2023-07-02T07:39:29;8.30;;;3.53;;
45043;SDS011;30784;48.490;9.688;2023-07-02T07:41:55;9.52;;;4.20;;
45043;SDS011;30784;48.490;9.688;2023-07-02T07:44:21;11.13;;;4.07;;
45043;SDS011;30784;48.490;9.688;2023-07-02T07:46:46;11.05;;;4.00;;
45043;SDS011;30784;48.490;9.688;2023-07-02T07:49:12;11.38;;;4.15;;
45043;SDS011;30784;48.490;9.688;2023-07-02T07:51:38;9.80;;;4.07;;
45043;SDS011;30784;48.490;9.688;2023-07-02T07:54:04;8.88;;;3.90;;
45043;SDS011;30784;48.490;9.688;2023-07-02T07:56:30;9.70;;;4.32;;
45043;SDS011;30784;48.490;9.688;2023-07-02T07:58:55;11.80;;;4.80;;
45043;SDS011;30784;48.490;9.688;2023-07-02T08:01:21;10.00;;;4.78;;
45043;SDS011;30784;48.490;9.688;2023-07-02T08:03:46;9.30;;;4.57;;
45043;SDS011;30784;48.490;9.688;2023-07-02T08:06:12;11.90;;;4.72;;
45043;SDS011;30784;48.490;9.688;2023-07-02T08:08:37;10.43;;;4.32;;
45043;SDS011;30784;48.490;9.688;2023-07-02T08:11:03;11.43;;;5.20;;
45043;SDS011;30784;48.490;9.688;2023-07-02T08:13:28;10.57;;;4.82;;
45043;SDS011;30784;48.490;9.688;2023-07-02T08:15:54;10.20;;;4.78;;
45043;SDS011;30784;48.490;9.688;2023-07-02T08:18:19;11.32;;;5.30;;
45043;SDS011;30784;48.490;9.688;2023-07-02T08:20:45;12.00;;;4.95;;
45043;SDS011;30784;48.490;9.688;2023-07-02T08:23:10;10.85;;;4.55;;
45043;SDS011;30784;48.490;9.688;2023-07-02T08:28:58;10.30;;;5.13;;
45043;SDS011;30784;48.490;9.688;2023-07-02T08:31:24;11.63;;;4.90;;
45043;SDS011;30784;48.490;9.688;2023-07-02T08:33:49;12.00;;;5.07;;
45043;SDS011;30784;48.490;9.688;2023-07-02T08:36:15;11.02;;;5.18;;
45043;SDS011;30784;48.490;9.688;2023-07-02T08:38:40;12.13;;;5.60;;
45043;SDS011;30784;48.490;9.688;2023-07-02T08:41:08;10.15;;;4.90;;
45043;SDS011;30784;48.490;9.688;2023-07-02T08:43:34;11.38;;;5.70;;
45043;SDS011;30784;48.490;9.688;2023-07-02T08:46:01;11.68;;;5.60;;
45043;SDS011;30784;48.490;9.688;2023-07-02T08:48:26;11.88;;;5.70;;
45043;SDS011;30784;48.490;9.688;2023-07-02T08:50:54;11.55;;;5.55;;
45043;SDS011;30784;48.490;9.688;2023-07-02T08:53:21;10.70;;;5.30;;
45043;SDS011;30784;48.490;9.688;2023-07-02T08:55:54;13.18;;;6.10;;
45043;SDS011;30784;48.490;9.688;2023-07-02T08:58:22;12.60;;;5.63;;
45043;SDS011;30784;48.490;9.688;2023-07-02T09:01:04;11.48;;;5.90;;
45043;SDS011;30784;48.490;9.688;2023-07-02T09:03:37;12.88;;;5.88;;
45043;SDS011;30784;48.490;9.688;2023-07-02T09:06:07;12.52;;;6.53;;
45043;SDS011;30784;48.490;9.688;2023-07-02T09:08:34;14.27;;;6.38;;
45043;SDS011;30784;48.490;9.688;2023-07-02T09:11:05;12.63;;;6.38;;
45043;SDS011;30784;48.490;9.688;2023-07-02T09:16:06;12.15;;;6.00;;
45043;SDS011;30784;48.490;9.688;2023-07-02T09:18:32;14.45;;;6.70;;
45043;SDS011;30784;48.490;9.688;2023-07-02T09:20:57;12.00;;;5.93;;
45043;SDS011;30784;48.490;9.688;2023-07-02T09:23:31;12.88;;;6.20;;
45043;SDS011;30784;48.490;9.688;2023-07-02T09:26:00;12.35;;;6.40;;
45043;SDS011;30784;48.490;9.688;2023-07-02T09:28:25;14.30;;;6.35;;
45043;SDS011;30784;48.490;9.688;2023-07-02T09:30:54;12.77;;;6.50;;
45043;SDS011;30784;48.490;9.688;2023-07-02T09:35:50;13.85;;;6.25;;
45043;SDS011;30784;48.490;9.688;2023-07-02T09:38:17;17.40;;;6.40;;
45043;SDS011;30784;48.490;9.688;2023-07-02T09:40:48;14.02;;;6.20;;
45043;SDS011;30784;48.490;9.688;2023-07-02T09:43:15;13.10;;;6.40;;
45043;SDS011;30784;48.490;9.688;2023-07-02T09:45:45;12.70;;;6.63;;
45043;SDS011;30784;48.490;9.688;2023-07-02T09:48:15;14.45;;;6.70;;
45043;SDS011;30784;48.490;9.688;2023-07-02T09:50:42;14.18;;;6.97;;
45043;SDS011;30784;48.490;9.688;2023-07-02T09:53:09;12.35;;;6.13;;
45043;SDS011;30784;48.490;9.688;2023-07-02T09:58:58;12.27;;;6.55;;
45043;SDS011;30784;48.490;9.688;2023-07-02T10:01:23;18.42;;;6.93;;
45043;SDS011;30784;48.490;9.688;2023-07-02T10:03:49;13.15;;;7.32;;
45043;SDS011;30784;48.490;9.688;2023-07-02T10:06:15;14.65;;;7.18;;
45043;SDS011;30784;48.490;9.688;2023-07-02T10:08:40;13.60;;;6.55;;
45043;SDS011;30784;48.490;9.688;2023-07-02T10:11:16;12.10;;;6.90;;
45043;SDS011;30784;48.490;9.688;2023-07-02T10:13:42;13.85;;;7.28;;
45043;SDS011;30784;48.490;9.688;2023-07-02T10:16:07;13.77;;;7.47;;
45043;SDS011;30784;48.490;9.688;2023-07-02T10:18:33;13.38;;;6.97;;
45043;SDS011;30784;48.490;9.688;2023-07-02T10:20:59;14.00;;;7.53;;
45043;SDS011;30784;48.490;9.688;2023-07-02T10:23:34;14.15;;;7.30;;
45043;SDS011;30784;48.490;9.688;2023-07-02T10:26:10;14.50;;;7.82;;
45043;SDS011;30784;48.490;9.688;2023-07-02T10:28:41;16.05;;;8.38;;
45043;SDS011;30784;48.490;9.688;2023-07-02T10:31:19;14.52;;;7.57;;
45043;SDS011;30784;48.490;9.688;2023-07-02T10:33:46;16.08;;;8.70;;
45043;SDS011;30784;48.490;9.688;2023-07-02T10:36:21;14.30;;;8.05;;
45043;SDS011;30784;48.490;9.688;2023-07-02T10:38:48;14.90;;;8.57;;
45043;SDS011;30784;48.490;9.688;2023-07-02T10:41:24;18.05;;;9.32;;
45043;SDS011;30784;48.490;9.688;2023-07-02T10:43:51;19.10;;;11.77;;
45043;SDS011;30784;48.490;9.688;2023-07-02T10:46:20;15.50;;;9.50;;
45043;SDS011;30784;48.490;9.688;2023-07-02T10:48:53;15.95;;;9.45;;
45043;SDS011;30784;48.490;9.688;2023-07-02T10:51:19;16.70;;;9.32;;
45043;SDS011;30784;48.490;9.688;2023-07-02T10:53:46;15.43;;;8.30;;
45043;SDS011;30784;48.490;9.688;2023-07-02T10:56:20;14.60;;;8.68;;
45043;SDS011;30784;48.490;9.688;2023-07-02T10:58:46;15.60;;;9.20;;
45043;SDS011;30784;48.490;9.688;2023-07-02T11:01:21;16.67;;;9.15;;
45043;SDS011;30784;48.490;9.688;2023-07-02T11:03:57;17.77;;;9.90;;
45043;SDS011;30784;48.490;9.688;2023-07-02T11:06:25;16.55;;;9.25;;
45043;SDS011;30784;48.490;9.688;2023-07-02T11:08:54;16.43;;;9.37;;
45043;SDS011;30784;48.490;9.688;2023-07-02T11:11:20;16.80;;;9.80;;
45043;SDS011;30784;48.490;9.688;2023-07-02T11:13:46;15.48;;;9.32;;
45043;SDS011;30784;48.490;9.688;2023-07-02T11:16:32;15.48;;;8.82;;
45043;SDS011;30784;48.490;9.688;2023-07-02T11:19:07;15.75;;;9.50;;
45043;SDS011;30784;48.490;9.688;2023-07-02T11:21:34;16.95;;;9.13;;
45043;SDS011;30784;48.490;9.688;2023-07-02T11:24:01;14.93;;;8.80;;
45043;SDS011;30784;48.490;9.688;2023-07-02T11:26:34;17.00;;;9.20;;
45043;SDS011;30784;48.490;9.688;2023-07-02T11:29:04;15.82;;;9.10;;
45043;SDS011;30784;48.490;9.688;2023-07-02T11:31:35;19.02;;;9.98;;
45043;SDS011;30784;48.490;9.688;2023-07-02T11:34:01;17.10;;;10.10;;
45043;SDS011;30784;48.490;9.688;2023-07-02T11:36:35;18.13;;;10.15;;
45043;SDS011;30784;48.490;9.688;2023-07-02T11:39:01;17.38;;;10.45;;
45043;SDS011;30784;48.490;9.688;2023-07-02T11:41:35;18.27;;;10.60;;
45043;SDS011;30784;48.490;9.688;2023-07-02T11:44:05;17.17;;;9.93;;
45043;SDS011;30784;48.490;9.688;2023-07-02T11:46:31;20.45;;;11.55;;
45043;SDS011;30784;48.490;9.688;2023-07-02T11:48:57;18.08;;;10.73;;
45043;SDS011;30784;48.490;9.688;2023-07-02T11:51:22;18.63;;;10.68;;
45043;SDS011;30784;48.490;9.688;2023-07-02T11:53:48;17.63;;;10.52;;
45043;SDS011;30784;48.490;9.688;2023-07-02T11:56:13;19.67;;;12.27;;
45043;SDS011;30784;48.490;9.688;2023-07-02T11:58:39;18.65;;;11.88;;
45043;SDS011;30784;48.490;9.688;2023-07-02T12:01:05;21.20;;;11.73;;
45043;SDS011;30784;48.490;9.688;2023-07-02T12:03:31;20.52;;;12.02;;
45043;SDS011;30784;48.490;9.688;2023-07-02T12:05:57;20.45;;;11.13;;
45043;SDS011;30784;48.490;9.688;2023-07-02T12:08:22;18.33;;;11.13;;
45043;SDS011;30784;48.490;9.688;2023-07-02T12:10:48;22.30;;;14.05;;
45043;SDS011;30784;48.490;9.688;2023-07-02T12:13:13;21.73;;;12.93;;
45043;SDS011;30784;48.490;9.688;2023-07-02T12:15:39;21.08;;;13.05;;
45043;SDS011;30784;48.490;9.688;2023-07-02T12:18:05;21.33;;;12.75;;
45043;SDS011;30784;48.490;9.688;2023-07-02T12:20:31;22.52;;;14.02;;
45043;SDS011;30784;48.490;9.688;2023-07-02T12:22:56;20.63;;;12.63;;
45043;SDS011;30784;48.490;9.688;2023-07-02T12:25:22;20.92;;;13.20;;
45043;SDS011;30784;48.490;9.688;2023-07-02T12:27:48;19.55;;;12.80;;
45043;SDS011;30784;48.490;9.688;2023-07-02T12:30:14;20.88;;;13.73;;
45043;SDS011;30784;48.490;9.688;2023-07-02T12:32:43;21.52;;;13.52;;
45043;SDS011;30784;48.490;9.688;2023-07-02T12:35:09;22.63;;;13.93;;
45043;SDS011;30784;48.490;9.688;2023-07-02T12:37:35;23.98;;;15.27;;
45043;SDS011;30784;48.490;9.688;2023-07-02T12:40:07;22.65;;;14.73;;
45043;SDS011;30784;48.490;9.688;2023-07-02T12:42:33;20.35;;;13.27;;
45043;SDS011;30784;48.490;9.688;2023-07-02T12:44:58;22.10;;;13.98;;
45043;SDS011;30784;48.490;9.688;2023-07-02T12:47:24;21.35;;;14.18;;
45043;SDS011;30784;48.490;9.688;2023-07-02T12:49:49;28.70;;;14.90;;
45043;SDS011;30784;48.490;9.688;2023-07-02T12:52:15;22.92;;;14.90;;
45043;SDS011;30784;48.490;9.688;2023-07-02T12:54:41;22.55;;;14.25;;
45043;SDS011;30784;48.490;9.688;2023-07-02T12:57:06;22.95;;;14.43;;
45043;SDS011;30784;48.490;9.688;2023-07-02T12:59:32;21.73;;;13.75;;
45043;SDS011;30784;48.490;9.688;2023-07-02T13:01:57;20.52;;;13.15;;
45043;SDS011;30784;48.490;9.688;2023-07-02T13:04:23;20.92;;;13.57;;
45043;SDS011;30784;48.490;9.688;2023-07-02T13:06:48;19.85;;;13.15;;
45043;SDS011;30784;48.490;9.688;2023-07-02T13:09:14;22.50;;;13.90;;
45043;SDS011;30784;48.490;9.688;2023-07-02T13:11:40;20.85;;;13.63;;
45043;SDS011;30784;48.490;9.688;2023-07-02T13:14:05;23.25;;;14.30;;
45043;SDS011;30784;48.490;9.688;2023-07-02T13:16:31;21.50;;;14.05;;
45043;SDS011;30784;48.490;9.688;2023-07-02T13:18:56;22.52;;;14.02;;
45043;SDS011;30784;48.490;9.688;2023-07-02T13:21:22;22.95;;;14.65;;
45043;SDS011;30784;48.490;9.688;2023-07-02T13:23:47;24.45;;;15.60;;
45043;SDS011;30784;48.490;9.688;2023-07-02T13:26:13;25.50;;;15.93;;
45043;SDS011;30784;48.490;9.688;2023-07-02T13:28:38;21.75;;;13.95;;
45043;SDS011;30784;48.490;9.688;2023-07-02T13:31:04;20.63;;;13.20;;
45043;SDS011;30784;48.490;9.688;2023-07-02T13:33:30;21.50;;;13.13;;
45043;SDS011;30784;48.490;9.688;2023-07-02T13:35:56;22.23;;;13.85;;
45043;SDS011;30784;48.490;9.688;2023-07-02T13:38:21;19.20;;;11.95;;
45043;SDS011;30784;48.490;9.688;2023-07-02T13:40:47;21.27;;;12.80;;
45043;SDS011;30784;48.490;9.688;2023-07-02T13:43:13;20.90;;;13.40;;
45043;SDS011;30784;48.490;9.688;2023-07-02T13:45:39;23.38;;;15.05;;
45043;SDS011;30784;48.490;9.688;2023-07-02T13:48:05;22.88;;;14.40;;
45043;SDS011;30784;48.490;9.688;2023-07-02T13:50:30;25.92;;;16.85;;
45043;SDS011;30784;48.490;9.688;2023-07-02T13:52:56;23.90;;;15.13;;
45043;SDS011;30784;48.490;9.688;2023-07-02T13:55:21;22.35;;;13.15;;
45043;SDS011;30784;48.490;9.688;2023-07-02T13:57:52;19.15;;;11.90;;
45043;SDS011;30784;48.490;9.688;2023-07-02T14:00:22;19.58;;;12.07;;
45043;SDS011;30784;48.490;9.688;2023-07-02T14:02:48;19.73;;;12.93;;
45043;SDS011;30784;48.490;9.688;2023-07-02T14:05:13;21.50;;;13.85;;
45043;SDS011;30784;48.490;9.688;2023-07-02T14:07:39;21.38;;;14.05;;
45043;SDS011;30784;48.490;9.688;2023-07-02T14:10:05;21.42;;;13.90;;
45043;SDS011;30784;48.490;9.688;2023-07-02T14:12:31;23.20;;;14.35;;
45043;SDS011;30784;48.490;9.688;2023-07-02T14:14:57;21.70;;;14.68;;
45043;SDS011;30784;48.490;9.688;2023-07-02T14:17:22;22.50;;;14.60;;
45043;SDS011;30784;48.490;9.688;2023-07-02T14:19:48;22.73;;;14.57;;
45043;SDS011;30784;48.490;9.688;2023-07-02T14:22:13;20.92;;;14.27;;
45043;SDS011;30784;48.490;9.688;2023-07-02T14:24:39;23.00;;;14.60;;
45043;SDS011;30784;48.490;9.688;2023-07-02T14:27:05;26.00;;;15.18;;
45043;SDS011;30784;48.490;9.688;2023-07-02T14:29:31;23.00;;;15.40;;
45043;SDS011;30784;48.490;9.688;2023-07-02T14:31:56;21.20;;;13.90;;
45043;SDS011;30784;48.490;9.688;2023-07-02T14:34:22;19.77;;;12.73;;
45043;SDS011;30784;48.490;9.688;2023-07-02T14:36:48;19.15;;;12.20;;
45043;SDS011;30784;48.490;9.688;2023-07-02T14:39:13;22.88;;;13.20;;
45043;SDS011;30784;48.490;9.688;2023-07-02T14:41:39;19.58;;;12.57;;
45043;SDS011;30784;48.490;9.688;2023-07-02T14:44:04;19.55;;;12.85;;
45043;SDS011;30784;48.490;9.688;2023-07-02T14:46:31;20.52;;;13.27;;
45043;SDS011;30784;48.490;9.688;2023-07-02T14:48:57;21.55;;;13.70;;
45043;SDS011;30784;48.490;9.688;2023-07-02T14:51:23;22.10;;;14.90;;
45043;SDS011;30784;48.490;9.688;2023-07-02T14:53:49;23.20;;;14.68;;